sensor_id;sensor_type;location;lat;lon;timestamp;P1;durP1;ratioP1;P2;durP2;ratioP2
12177;SDS011;6152;48.728;9.256;2023-10-13T00:00:39;3.92;;;2.53;;
12177;SDS011;6152;48.728;9.256;2023-10-13T00:03:06;2.80;;;2.20;;
12177;SDS011;6152;48.728;9.256;2023-10-13T00:05:43;3.70;;;2.17;;
12177;SDS011;6152;48.728;9.256;2023-10-13T00:08:10;5.05;;;2.30;;
12177;SDS011;6152;48.728;9.256;2023-10-13T00:10:36;5.80;;;1.85;;
12177;SDS011;6152;48.728;9.256;2023-10-13T00:13:03;4.93;;;2.47;;
12177;SDS011;6152;48.728;9.256;2023-10-13T00:15:41;4.25;;;2.50;;
12177;SDS011;6152;48.728;9.256;2023-10-13T00:18:23;6.82;;;2.35;;
12177;SDS011;6152;48.728;9.256;2023-10-13T00:20:59;5.63;;;2.40;;
12177;SDS011;6152;48.728;9.256;2023-10-13T00:23:38;5.20;;;2.55;;
12177;SDS011;6152;48.728;9.256;2023-10-13T00:26:20;3.90;;;2.33;;
12177;SDS011;6152;48.728;9.256;2023-10-13T00:29:00;3.28;;;2.15;;
12177;SDS011;6152;48.728;9.256;2023-10-13T00:31:35;3.92;;;2.72;;
12177;SDS011;6152;48.728;9.256;2023-10-13T00:34:03;4.18;;;2.38;;
12177;SDS011;6152;48.728;9.256;2023-10-13T00:36:37;4.28;;;2.30;;
12177;SDS011;6152;48.728;9.256;2023-10-13T00:39:13;4.03;;;2.55;;
12177;SDS011;6152;48.728;9.256;2023-10-13T00:41:41;5.93;;;2.20;;
12177;SDS011;6152;48.728;9.256;2023-10-13T00:44:18;3.70;;;2.35;;
12177;SDS011;6152;48.728;9.256;2023-10-13T00:46:53;4.47;;;2.22;;
12177;SDS011;6152;48.728;9.256;2023-10-13T00:49:22;3.03;;;2.55;;
12177;SDS011;6152;48.728;9.256;2023-10-13T00:51:49;2.25;;;2.05;;
12177;SDS011;6152;48.728;9.256;2023-10-13T00:54:15;2.33;;;1.90;;
12177;SDS011;6152;48.728;9.256;2023-10-13T00:56:51;5.90;;;3.10;;
12177;SDS011;6152;48.728;9.256;2023-10-13T00:59:29;3.00;;;2.10;;
12177;SDS011;6152;48.728;9.256;2023-10-13T01:02:06;4.82;;;2.20;;
12177;SDS011;6152;48.728;9.256;2023-10-13T01:05:11;2.35;;;2.15;;
12177;SDS011;6152;48.728;9.256;2023-10-13T01:07:45;3.75;;;2.72;;
12177;SDS011;6152;48.728;9.256;2023-10-13T01:10:15;3.95;;;2.33;;
12177;SDS011;6152;48.728;9.256;2023-10-13T01:12:42;3.58;;;2.50;;
12177;SDS011;6152;48.728;9.256;2023-10-13T01:15:08;2.60;;;2.05;;
12177;SDS011;6152;48.728;9.256;2023-10-13T01:17:36;7.00;;;2.33;;
12177;SDS011;6152;48.728;9.256;2023-10-13T01:20:03;4.95;;;2.45;;
12177;SDS011;6152;48.728;9.256;2023-10-13T01:22:31;2.70;;;2.30;;
12177;SDS011;6152;48.728;9.256;2023-10-13T01:24:57;3.53;;;2.35;;
12177;SDS011;6152;48.728;9.256;2023-10-13T01:27:37;5.32;;;2.15;;
12177;SDS011;6152;48.728;9.256;2023-10-13T01:30:04;4.78;;;2.28;;
12177;SDS011;6152;48.728;9.256;2023-10-13T01:32:35;3.65;;;2.28;;
12177;SDS011;6152;48.728;9.256;2023-10-13T01:35:10;4.07;;;2.67;;
12177;SDS011;6152;48.728;9.256;2023-10-13T01:37:36;3.42;;;2.85;;
12177;SDS011;6152;48.728;9.256;2023-10-13T01:40:02;5.63;;;2.67;;
12177;SDS011;6152;48.728;9.256;2023-10-13T01:42:29;6.85;;;2.97;;
12177;SDS011;6152;48.728;9.256;2023-10-13T01:44:55;3.70;;;2.45;;
12177;SDS011;6152;48.728;9.256;2023-10-13T01:47:30;5.05;;;2.97;;
12177;SDS011;6152;48.728;9.256;2023-10-13T01:49:58;5.22;;;2.70;;
12177;SDS011;6152;48.728;9.256;2023-10-13T01:52:38;5.22;;;2.38;;
12177;SDS011;6152;48.728;9.256;2023-10-13T01:55:04;4.13;;;2.25;;
12177;SDS011;6152;48.728;9.256;2023-10-13T01:57:32;6.53;;;2.35;;
12177;SDS011;6152;48.728;9.256;2023-10-13T01:59:58;7.03;;;2.60;;
12177;SDS011;6152;48.728;9.256;2023-10-13T02:02:34;4.43;;;2.50;;
12177;SDS011;6152;48.728;9.256;2023-10-13T02:05:09;3.60;;;2.22;;
12177;SDS011;6152;48.728;9.256;2023-10-13T02:07:37;3.55;;;2.45;;
12177;SDS011;6152;48.728;9.256;2023-10-13T02:10:03;3.15;;;2.70;;
12177;SDS011;6152;48.728;9.256;2023-10-13T02:12:31;5.47;;;2.55;;
12177;SDS011;6152;48.728;9.256;2023-10-13T02:15:10;3.63;;;2.45;;
12177;SDS011;6152;48.728;9.256;2023-10-13T02:17:51;3.92;;;2.40;;
12177;SDS011;6152;48.728;9.256;2023-10-13T02:20:19;3.75;;;2.70;;
12177;SDS011;6152;48.728;9.256;2023-10-13T02:22:50;5.15;;;2.65;;
12177;SDS011;6152;48.728;9.256;2023-10-13T02:25:17;5.15;;;2.53;;
12177;SDS011;6152;48.728;9.256;2023-10-13T02:28:03;7.13;;;2.83;;
12177;SDS011;6152;48.728;9.256;2023-10-13T02:30:37;7.47;;;2.88;;
12177;SDS011;6152;48.728;9.256;2023-10-13T02:33:04;6.60;;;2.60;;
12177;SDS011;6152;48.728;9.256;2023-10-13T02:35:31;4.78;;;2.50;;
12177;SDS011;6152;48.728;9.256;2023-10-13T02:38:06;5.22;;;2.38;;
12177;SDS011;6152;48.728;9.256;2023-10-13T02:40:36;5.00;;;2.55;;
12177;SDS011;6152;48.728;9.256;2023-10-13T02:43:04;7.50;;;2.88;;
12177;SDS011;6152;48.728;9.256;2023-10-13T02:45:31;6.10;;;2.67;;
12177;SDS011;6152;48.728;9.256;2023-10-13T02:47:58;4.45;;;2.42;;
12177;SDS011;6152;48.728;9.256;2023-10-13T02:50:42;2.78;;;2.05;;
12177;SDS011;6152;48.728;9.256;2023-10-13T02:53:09;4.40;;;2.40;;
12177;SDS011;6152;48.728;9.256;2023-10-13T02:55:48;7.00;;;2.58;;
12177;SDS011;6152;48.728;9.256;2023-10-13T02:58:18;6.65;;;3.00;;
12177;SDS011;6152;48.728;9.256;2023-10-13T03:00:45;6.90;;;2.35;;
12177;SDS011;6152;48.728;9.256;2023-10-13T03:03:11;6.05;;;2.40;;
12177;SDS011;6152;48.728;9.256;2023-10-13T03:05:43;5.78;;;2.45;;
12177;SDS011;6152;48.728;9.256;2023-10-13T03:08:10;3.95;;;2.65;;
12177;SDS011;6152;48.728;9.256;2023-10-13T03:10:37;5.85;;;2.47;;
12177;SDS011;6152;48.728;9.256;2023-10-13T03:13:11;4.03;;;2.85;;
12177;SDS011;6152;48.728;9.256;2023-10-13T03:15:37;4.35;;;2.05;;
12177;SDS011;6152;48.728;9.256;2023-10-13T03:18:03;3.13;;;2.40;;
12177;SDS011;6152;48.728;9.256;2023-10-13T03:20:29;2.88;;;2.33;;
12177;SDS011;6152;48.728;9.256;2023-10-13T03:22:57;3.85;;;2.10;;
12177;SDS011;6152;48.728;9.256;2023-10-13T03:25:24;4.85;;;2.83;;
12177;SDS011;6152;48.728;9.256;2023-10-13T03:27:53;4.32;;;2.58;;
12177;SDS011;6152;48.728;9.256;2023-10-13T03:30:20;6.13;;;3.20;;
12177;SDS011;6152;48.728;9.256;2023-10-13T03:32:54;6.40;;;2.53;;
12177;SDS011;6152;48.728;9.256;2023-10-13T03:35:21;6.70;;;2.58;;
12177;SDS011;6152;48.728;9.256;2023-10-13T03:37:53;4.72;;;2.83;;
12177;SDS011;6152;48.728;9.256;2023-10-13T03:40:20;6.05;;;2.58;;
12177;SDS011;6152;48.728;9.256;2023-10-13T03:42:47;4.72;;;2.83;;
12177;SDS011;6152;48.728;9.256;2023-10-13T03:45:43;4.50;;;2.55;;
12177;SDS011;6152;48.728;9.256;2023-10-13T03:48:15;6.32;;;3.33;;
12177;SDS011;6152;48.728;9.256;2023-10-13T03:51:01;4.47;;;2.80;;
12177;SDS011;6152;48.728;9.256;2023-10-13T03:53:40;4.57;;;2.70;;
12177;SDS011;6152;48.728;9.256;2023-10-13T03:56:19;4.75;;;2.60;;
12177;SDS011;6152;48.728;9.256;2023-10-13T03:58:56;7.18;;;3.20;;
12177;SDS011;6152;48.728;9.256;2023-10-13T04:01:26;6.97;;;2.80;;
12177;SDS011;6152;48.728;9.256;2023-10-13T04:04:18;4.32;;;2.40;;
12177;SDS011;6152;48.728;9.256;2023-10-13T04:07:05;3.97;;;2.55;;
12177;SDS011;6152;48.728;9.256;2023-10-13T04:09:34;6.20;;;2.85;;
12177;SDS011;6152;48.728;9.256;2023-10-13T04:12:06;5.13;;;2.63;;
12177;SDS011;6152;48.728;9.256;2023-10-13T04:14:39;5.45;;;2.78;;
12177;SDS011;6152;48.728;9.256;2023-10-13T04:17:25;4.40;;;2.70;;
12177;SDS011;6152;48.728;9.256;2023-10-13T04:19:53;7.72;;;2.92;;
12177;SDS011;6152;48.728;9.256;2023-10-13T04:22:42;8.63;;;3.05;;
12177;SDS011;6152;48.728;9.256;2023-10-13T04:25:21;4.45;;;3.03;;
12177;SDS011;6152;48.728;9.256;2023-10-13T04:28:00;4.88;;;3.50;;
12177;SDS011;6152;48.728;9.256;2023-10-13T04:30:40;5.50;;;3.05;;
12177;SDS011;6152;48.728;9.256;2023-10-13T04:33:13;9.32;;;3.72;;
12177;SDS011;6152;48.728;9.256;2023-10-13T04:36:21;5.13;;;3.22;;
12177;SDS011;6152;48.728;9.256;2023-10-13T04:38:53;4.13;;;2.85;;
12177;SDS011;6152;48.728;9.256;2023-10-13T04:41:22;7.05;;;2.90;;
12177;SDS011;6152;48.728;9.256;2023-10-13T04:44:07;4.75;;;2.75;;
12177;SDS011;6152;48.728;9.256;2023-10-13T04:46:53;4.80;;;3.10;;
12177;SDS011;6152;48.728;9.256;2023-10-13T04:49:33;6.75;;;3.58;;
12177;SDS011;6152;48.728;9.256;2023-10-13T04:52:12;6.28;;;2.50;;
12177;SDS011;6152;48.728;9.256;2023-10-13T04:54:51;8.05;;;3.28;;
12177;SDS011;6152;48.728;9.256;2023-10-13T04:57:24;6.95;;;3.17;;
12177;SDS011;6152;48.728;9.256;2023-10-13T05:00:12;3.92;;;2.90;;
12177;SDS011;6152;48.728;9.256;2023-10-13T05:02:45;5.68;;;3.25;;
12177;SDS011;6152;48.728;9.256;2023-10-13T05:05:30;5.05;;;3.28;;
12177;SDS011;6152;48.728;9.256;2023-10-13T05:08:10;8.40;;;3.35;;
12177;SDS011;6152;48.728;9.256;2023-10-13T05:10:55;5.20;;;3.22;;
12177;SDS011;6152;48.728;9.256;2023-10-13T05:13:40;9.05;;;3.08;;
12177;SDS011;6152;48.728;9.256;2023-10-13T05:16:25;8.90;;;3.42;;
12177;SDS011;6152;48.728;9.256;2023-10-13T05:19:09;8.73;;;3.20;;
12177;SDS011;6152;48.728;9.256;2023-10-13T05:21:54;6.18;;;3.35;;
12177;SDS011;6152;48.728;9.256;2023-10-13T05:24:39;5.70;;;3.70;;
12177;SDS011;6152;48.728;9.256;2023-10-13T05:27:23;6.68;;;3.20;;
12177;SDS011;6152;48.728;9.256;2023-10-13T05:30:08;5.60;;;3.50;;
12177;SDS011;6152;48.728;9.256;2023-10-13T05:32:53;7.32;;;3.45;;
12177;SDS011;6152;48.728;9.256;2023-10-13T05:35:38;6.28;;;3.20;;
12177;SDS011;6152;48.728;9.256;2023-10-13T05:38:22;5.93;;;3.15;;
12177;SDS011;6152;48.728;9.256;2023-10-13T05:41:07;5.15;;;3.50;;
12177;SDS011;6152;48.728;9.256;2023-10-13T05:43:51;6.85;;;3.53;;
12177;SDS011;6152;48.728;9.256;2023-10-13T05:46:36;5.70;;;3.95;;
12177;SDS011;6152;48.728;9.256;2023-10-13T05:49:02;6.78;;;3.70;;
12177;SDS011;6152;48.728;9.256;2023-10-13T05:51:42;6.72;;;4.00;;
12177;SDS011;6152;48.728;9.256;2023-10-13T05:54:13;6.15;;;4.10;;
12177;SDS011;6152;48.728;9.256;2023-10-13T05:56:46;6.78;;;4.10;;
12177;SDS011;6152;48.728;9.256;2023-10-13T05:59:37;11.30;;;4.30;;
12177;SDS011;6152;48.728;9.256;2023-10-13T06:02:23;7.07;;;4.10;;
12177;SDS011;6152;48.728;9.256;2023-10-13T06:05:09;6.47;;;4.63;;
12177;SDS011;6152;48.728;9.256;2023-10-13T06:07:54;7.53;;;4.53;;
12177;SDS011;6152;48.728;9.256;2023-10-13T06:10:40;7.05;;;4.40;;
12177;SDS011;6152;48.728;9.256;2023-10-13T06:13:26;8.27;;;4.13;;
12177;SDS011;6152;48.728;9.256;2023-10-13T06:16:12;6.07;;;3.78;;
12177;SDS011;6152;48.728;9.256;2023-10-13T06:18:58;6.05;;;3.95;;
12177;SDS011;6152;48.728;9.256;2023-10-13T06:21:44;6.30;;;3.97;;
12177;SDS011;6152;48.728;9.256;2023-10-13T06:24:29;7.05;;;4.38;;
12177;SDS011;6152;48.728;9.256;2023-10-13T06:27:14;7.57;;;4.57;;
12177;SDS011;6152;48.728;9.256;2023-10-13T06:29:59;7.25;;;4.53;;
12177;SDS011;6152;48.728;9.256;2023-10-13T06:32:26;6.72;;;4.05;;
12177;SDS011;6152;48.728;9.256;2023-10-13T06:34:53;8.35;;;4.50;;
12177;SDS011;6152;48.728;9.256;2023-10-13T06:37:38;6.68;;;4.13;;
12177;SDS011;6152;48.728;9.256;2023-10-13T06:40:10;9.05;;;4.07;;
12177;SDS011;6152;48.728;9.256;2023-10-13T06:42:46;9.32;;;4.38;;
12177;SDS011;6152;48.728;9.256;2023-10-13T06:45:12;7.13;;;4.70;;
12177;SDS011;6152;48.728;9.256;2023-10-13T06:47:41;7.90;;;4.95;;
12177;SDS011;6152;48.728;9.256;2023-10-13T06:50:17;9.50;;;4.55;;
12177;SDS011;6152;48.728;9.256;2023-10-13T06:52:49;6.60;;;3.78;;
12177;SDS011;6152;48.728;9.256;2023-10-13T06:55:16;4.65;;;3.78;;
12177;SDS011;6152;48.728;9.256;2023-10-13T06:57:48;6.25;;;4.10;;
12177;SDS011;6152;48.728;9.256;2023-10-13T07:00:16;7.40;;;3.95;;
12177;SDS011;6152;48.728;9.256;2023-10-13T07:02:52;5.65;;;3.28;;
12177;SDS011;6152;48.728;9.256;2023-10-13T07:05:19;8.00;;;3.33;;
12177;SDS011;6152;48.728;9.256;2023-10-13T07:07:45;6.63;;;3.70;;
12177;SDS011;6152;48.728;9.256;2023-10-13T07:10:13;6.03;;;3.45;;
12177;SDS011;6152;48.728;9.256;2023-10-13T07:12:40;8.95;;;4.20;;
12177;SDS011;6152;48.728;9.256;2023-10-13T07:15:12;8.48;;;3.65;;
12177;SDS011;6152;48.728;9.256;2023-10-13T07:17:43;6.10;;;3.85;;
12177;SDS011;6152;48.728;9.256;2023-10-13T07:20:12;8.55;;;3.88;;
12177;SDS011;6152;48.728;9.256;2023-10-13T07:22:49;6.45;;;3.67;;
12177;SDS011;6152;48.728;9.256;2023-10-13T07:25:34;10.68;;;3.75;;
12177;SDS011;6152;48.728;9.256;2023-10-13T07:28:05;5.13;;;3.35;;
12177;SDS011;6152;48.728;9.256;2023-10-13T07:30:34;5.68;;;3.47;;
12177;SDS011;6152;48.728;9.256;2023-10-13T07:33:14;4.88;;;3.33;;
12177;SDS011;6152;48.728;9.256;2023-10-13T07:35:44;7.78;;;3.28;;
12177;SDS011;6152;48.728;9.256;2023-10-13T07:38:16;6.57;;;3.50;;
12177;SDS011;6152;48.728;9.256;2023-10-13T07:40:46;6.28;;;3.95;;
12177;SDS011;6152;48.728;9.256;2023-10-13T07:43:18;5.65;;;3.50;;
12177;SDS011;6152;48.728;9.256;2023-10-13T07:45:47;5.28;;;3.30;;
12177;SDS011;6152;48.728;9.256;2023-10-13T07:48:17;4.65;;;3.28;;
12177;SDS011;6152;48.728;9.256;2023-10-13T07:50:45;5.75;;;3.38;;
12177;SDS011;6152;48.728;9.256;2023-10-13T07:53:47;4.60;;;3.10;;
12177;SDS011;6152;48.728;9.256;2023-10-13T07:56:14;5.68;;;3.30;;
12177;SDS011;6152;48.728;9.256;2023-10-13T07:58:44;6.10;;;3.65;;
12177;SDS011;6152;48.728;9.256;2023-10-13T08:01:25;7.38;;;3.22;;
12177;SDS011;6152;48.728;9.256;2023-10-13T08:03:52;5.95;;;3.50;;
12177;SDS011;6152;48.728;9.256;2023-10-13T08:06:37;5.03;;;3.35;;
12177;SDS011;6152;48.728;9.256;2023-10-13T08:09:05;7.90;;;3.40;;
12177;SDS011;6152;48.728;9.256;2023-10-13T08:11:52;5.30;;;3.30;;
12177;SDS011;6152;48.728;9.256;2023-10-13T08:14:19;8.68;;;3.63;;
12177;SDS011;6152;48.728;9.256;2023-10-13T08:16:49;6.35;;;3.60;;
12177;SDS011;6152;48.728;9.256;2023-10-13T08:19:19;9.77;;;3.40;;
12177;SDS011;6152;48.728;9.256;2023-10-13T08:21:56;7.63;;;3.67;;
12177;SDS011;6152;48.728;9.256;2023-10-13T08:24:24;6.13;;;3.25;;
12177;SDS011;6152;48.728;9.256;2023-10-13T08:27:02;8.57;;;3.38;;
12177;SDS011;6152;48.728;9.256;2023-10-13T08:29:44;5.68;;;3.38;;
12177;SDS011;6152;48.728;9.256;2023-10-13T08:32:34;4.90;;;3.20;;
12177;SDS011;6152;48.728;9.256;2023-10-13T08:35:19;5.32;;;3.08;;
12177;SDS011;6152;48.728;9.256;2023-10-13T08:37:55;4.78;;;2.80;;
12177;SDS011;6152;48.728;9.256;2023-10-13T08:40:26;9.63;;;3.78;;
12177;SDS011;6152;48.728;9.256;2023-10-13T08:43:21;7.93;;;2.90;;
12177;SDS011;6152;48.728;9.256;2023-10-13T08:45:49;5.35;;;3.08;;
12177;SDS011;6152;48.728;9.256;2023-10-13T08:48:16;10.45;;;3.30;;
12177;SDS011;6152;48.728;9.256;2023-10-13T08:50:44;7.75;;;3.00;;
12177;SDS011;6152;48.728;9.256;2023-10-13T08:53:17;6.28;;;3.47;;
12177;SDS011;6152;48.728;9.256;2023-10-13T08:56:11;7.32;;;3.15;;
12177;SDS011;6152;48.728;9.256;2023-10-13T08:58:38;8.40;;;2.90;;
12177;SDS011;6152;48.728;9.256;2023-10-13T09:01:26;8.15;;;3.38;;
12177;SDS011;6152;48.728;9.256;2023-10-13T09:04:02;6.07;;;2.90;;
12177;SDS011;6152;48.728;9.256;2023-10-13T09:06:51;7.20;;;3.25;;
12177;SDS011;6152;48.728;9.256;2023-10-13T09:12:17;10.00;;;4.00;;
12177;SDS011;6152;48.728;9.256;2023-10-13T09:15:00;8.88;;;2.88;;
12177;SDS011;6152;48.728;9.256;2023-10-13T09:17:46;5.78;;;3.17;;
12177;SDS011;6152;48.728;9.256;2023-10-13T09:20:17;6.82;;;2.75;;
12177;SDS011;6152;48.728;9.256;2023-10-13T09:23:09;5.65;;;2.38;;
12177;SDS011;6152;48.728;9.256;2023-10-13T09:25:38;4.90;;;2.50;;
12177;SDS011;6152;48.728;9.256;2023-10-13T09:28:18;6.07;;;2.70;;
12177;SDS011;6152;48.728;9.256;2023-10-13T09:30:53;4.97;;;2.83;;
12177;SDS011;6152;48.728;9.256;2023-10-13T09:33:27;3.97;;;2.40;;
12177;SDS011;6152;48.728;9.256;2023-10-13T09:36:27;4.60;;;2.08;;
12177;SDS011;6152;48.728;9.256;2023-10-13T09:38:54;5.00;;;2.30;;
12177;SDS011;6152;48.728;9.256;2023-10-13T09:41:54;3.50;;;2.10;;
12177;SDS011;6152;48.728;9.256;2023-10-13T09:44:24;5.10;;;2.08;;
12177;SDS011;6152;48.728;9.256;2023-10-13T09:46:57;5.25;;;2.60;;
12177;SDS011;6152;48.728;9.256;2023-10-13T09:49:35;5.15;;;2.20;;
12177;SDS011;6152;48.728;9.256;2023-10-13T09:52:14;4.93;;;2.20;;
12177;SDS011;6152;48.728;9.256;2023-10-13T09:55:03;6.03;;;2.13;;
12177;SDS011;6152;48.728;9.256;2023-10-13T09:57:40;3.17;;;1.80;;
12177;SDS011;6152;48.728;9.256;2023-10-13T10:00:11;3.50;;;1.90;;
12177;SDS011;6152;48.728;9.256;2023-10-13T10:03:00;4.00;;;2.10;;
12177;SDS011;6152;48.728;9.256;2023-10-13T10:05:54;2.55;;;1.65;;
12177;SDS011;6152;48.728;9.256;2023-10-13T10:08:28;2.58;;;1.92;;
12177;SDS011;6152;48.728;9.256;2023-10-13T10:14:28;7.88;;;2.25;;
12177;SDS011;6152;48.728;9.256;2023-10-13T10:17:21;4.05;;;1.60;;
12177;SDS011;6152;48.728;9.256;2023-10-13T10:19:51;2.53;;;1.98;;
12177;SDS011;6152;48.728;9.256;2023-10-13T10:22:27;3.10;;;2.10;;
12177;SDS011;6152;48.728;9.256;2023-10-13T10:25:04;5.03;;;2.03;;
12177;SDS011;6152;48.728;9.256;2023-10-13T10:27:32;4.32;;;2.10;;
12177;SDS011;6152;48.728;9.256;2023-10-13T10:29:59;4.45;;;1.98;;
12177;SDS011;6152;48.728;9.256;2023-10-13T10:32:38;4.30;;;1.77;;
12177;SDS011;6152;48.728;9.256;2023-10-13T10:35:13;6.30;;;1.95;;
12177;SDS011;6152;48.728;9.256;2023-10-13T10:37:41;4.00;;;1.90;;
12177;SDS011;6152;48.728;9.256;2023-10-13T10:40:16;5.80;;;2.17;;
12177;SDS011;6152;48.728;9.256;2023-10-13T10:43:01;4.55;;;2.13;;
12177;SDS011;6152;48.728;9.256;2023-10-13T10:45:33;6.32;;;2.13;;
12177;SDS011;6152;48.728;9.256;2023-10-13T10:48:02;7.47;;;2.13;;
12177;SDS011;6152;48.728;9.256;2023-10-13T10:50:42;7.75;;;2.30;;
12177;SDS011;6152;48.728;9.256;2023-10-13T10:53:18;7.85;;;1.90;;
12177;SDS011;6152;48.728;9.256;2023-10-13T10:55:47;5.80;;;2.13;;
12177;SDS011;6152;48.728;9.256;2023-10-13T10:58:13;4.68;;;2.10;;
12177;SDS011;6152;48.728;9.256;2023-10-13T11:01:07;7.57;;;2.03;;
12177;SDS011;6152;48.728;9.256;2023-10-13T11:03:35;2.67;;;1.88;;
12177;SDS011;6152;48.728;9.256;2023-10-13T11:06:10;5.35;;;2.08;;
12177;SDS011;6152;48.728;9.256;2023-10-13T11:08:40;5.88;;;2.30;;
12177;SDS011;6152;48.728;9.256;2023-10-13T11:11:08;6.75;;;2.10;;
12177;SDS011;6152;48.728;9.256;2023-10-13T11:13:46;5.03;;;1.92;;
12177;SDS011;6152;48.728;9.256;2023-10-13T11:16:22;7.40;;;2.13;;
12177;SDS011;6152;48.728;9.256;2023-10-13T11:18:59;4.68;;;1.80;;
12177;SDS011;6152;48.728;9.256;2023-10-13T11:21:29;2.30;;;1.70;;
12177;SDS011;6152;48.728;9.256;2023-10-13T11:23:59;4.45;;;2.25;;
12177;SDS011;6152;48.728;9.256;2023-10-13T11:26:37;6.15;;;1.95;;
12177;SDS011;6152;48.728;9.256;2023-10-13T11:29:16;5.38;;;2.15;;
12177;SDS011;6152;48.728;9.256;2023-10-13T11:31:44;2.55;;;2.00;;
12177;SDS011;6152;48.728;9.256;2023-10-13T11:34:11;3.50;;;1.80;;
12177;SDS011;6152;48.728;9.256;2023-10-13T11:36:42;4.47;;;2.28;;
12177;SDS011;6152;48.728;9.256;2023-10-13T11:39:08;5.35;;;2.03;;
12177;SDS011;6152;48.728;9.256;2023-10-13T11:41:34;6.20;;;2.20;;
12177;SDS011;6152;48.728;9.256;2023-10-13T11:44:03;4.75;;;2.03;;
12177;SDS011;6152;48.728;9.256;2023-10-13T11:46:48;5.75;;;2.13;;
12177;SDS011;6152;48.728;9.256;2023-10-13T11:49:21;4.70;;;1.80;;
12177;SDS011;6152;48.728;9.256;2023-10-13T11:51:53;4.68;;;1.90;;
12177;SDS011;6152;48.728;9.256;2023-10-13T11:54:34;5.60;;;2.35;;
12177;SDS011;6152;48.728;9.256;2023-10-13T11:57:03;6.10;;;2.10;;
12177;SDS011;6152;48.728;9.256;2023-10-13T11:59:32;7.63;;;1.80;;
12177;SDS011;6152;48.728;9.256;2023-10-13T12:02:01;4.55;;;2.53;;
12177;SDS011;6152;48.728;9.256;2023-10-13T12:04:37;4.22;;;2.05;;
12177;SDS011;6152;48.728;9.256;2023-10-13T12:07:23;4.30;;;2.20;;
12177;SDS011;6152;48.728;9.256;2023-10-13T12:10:05;3.10;;;1.70;;
12177;SDS011;6152;48.728;9.256;2023-10-13T12:12:40;7.93;;;1.85;;
12177;SDS011;6152;48.728;9.256;2023-10-13T12:15:08;3.67;;;2.03;;
12177;SDS011;6152;48.728;9.256;2023-10-13T12:17:35;5.65;;;1.98;;
12177;SDS011;6152;48.728;9.256;2023-10-13T12:20:04;5.68;;;2.10;;
12177;SDS011;6152;48.728;9.256;2023-10-13T12:22:35;5.55;;;2.00;;
12177;SDS011;6152;48.728;9.256;2023-10-13T12:25:07;4.35;;;2.17;;
12177;SDS011;6152;48.728;9.256;2023-10-13T12:27:50;5.07;;;2.45;;
12177;SDS011;6152;48.728;9.256;2023-10-13T12:30:23;4.00;;;2.15;;
12177;SDS011;6152;48.728;9.256;2023-10-13T12:33:13;3.88;;;2.33;;
12177;SDS011;6152;48.728;9.256;2023-10-13T12:35:42;6.97;;;2.05;;
12177;SDS011;6152;48.728;9.256;2023-10-13T12:38:26;3.90;;;2.63;;
12177;SDS011;6152;48.728;9.256;2023-10-13T12:41:11;3.75;;;2.03;;
12177;SDS011;6152;48.728;9.256;2023-10-13T12:44:00;6.70;;;2.42;;
12177;SDS011;6152;48.728;9.256;2023-10-13T12:46:46;4.70;;;2.45;;
12177;SDS011;6152;48.728;9.256;2023-10-13T12:49:32;3.58;;;1.80;;
12177;SDS011;6152;48.728;9.256;2023-10-13T12:52:07;5.05;;;1.92;;
12177;SDS011;6152;48.728;9.256;2023-10-13T12:54:43;3.45;;;2.08;;
12177;SDS011;6152;48.728;9.256;2023-10-13T12:57:23;4.20;;;2.47;;
12177;SDS011;6152;48.728;9.256;2023-10-13T12:59:50;4.75;;;2.10;;
12177;SDS011;6152;48.728;9.256;2023-10-13T13:02:20;3.80;;;2.33;;
12177;SDS011;6152;48.728;9.256;2023-10-13T13:04:46;3.85;;;1.98;;
12177;SDS011;6152;48.728;9.256;2023-10-13T13:07:33;5.03;;;1.90;;
12177;SDS011;6152;48.728;9.256;2023-10-13T13:10:08;6.57;;;2.40;;
12177;SDS011;6152;48.728;9.256;2023-10-13T13:12:36;4.57;;;2.15;;
12177;SDS011;6152;48.728;9.256;2023-10-13T13:15:03;3.95;;;1.83;;
12177;SDS011;6152;48.728;9.256;2023-10-13T13:17:34;3.85;;;2.10;;
12177;SDS011;6152;48.728;9.256;2023-10-13T13:20:01;5.72;;;2.30;;
12177;SDS011;6152;48.728;9.256;2023-10-13T13:22:36;3.40;;;2.00;;
12177;SDS011;6152;48.728;9.256;2023-10-13T13:25:03;4.65;;;1.88;;
12177;SDS011;6152;48.728;9.256;2023-10-13T13:27:33;4.53;;;2.20;;
12177;SDS011;6152;48.728;9.256;2023-10-13T13:29:59;5.65;;;2.00;;
12177;SDS011;6152;48.728;9.256;2023-10-13T13:32:26;6.15;;;2.00;;
12177;SDS011;6152;48.728;9.256;2023-10-13T13:34:53;4.28;;;1.90;;
12177;SDS011;6152;48.728;9.256;2023-10-13T13:37:23;5.43;;;2.20;;
12177;SDS011;6152;48.728;9.256;2023-10-13T13:39:52;3.30;;;1.70;;
12177;SDS011;6152;48.728;9.256;2023-10-13T13:42:18;6.13;;;1.92;;
12177;SDS011;6152;48.728;9.256;2023-10-13T13:44:45;2.40;;;1.98;;
12177;SDS011;6152;48.728;9.256;2023-10-13T13:47:12;3.38;;;1.83;;
12177;SDS011;6152;48.728;9.256;2023-10-13T13:49:39;2.75;;;1.55;;
12177;SDS011;6152;48.728;9.256;2023-10-13T13:52:11;3.28;;;1.80;;
12177;SDS011;6152;48.728;9.256;2023-10-13T13:54:43;6.35;;;1.73;;
12177;SDS011;6152;48.728;9.256;2023-10-13T13:57:09;2.58;;;1.90;;
12177;SDS011;6152;48.728;9.256;2023-10-13T13:59:35;3.20;;;1.70;;
12177;SDS011;6152;48.728;9.256;2023-10-13T14:02:02;2.08;;;1.60;;
12177;SDS011;6152;48.728;9.256;2023-10-13T14:04:45;5.28;;;1.60;;
12177;SDS011;6152;48.728;9.256;2023-10-13T14:07:12;4.93;;;1.95;;
12177;SDS011;6152;48.728;9.256;2023-10-13T14:09:41;4.15;;;1.70;;
12177;SDS011;6152;48.728;9.256;2023-10-13T14:12:09;3.63;;;1.70;;
12177;SDS011;6152;48.728;9.256;2023-10-13T14:14:44;5.10;;;2.00;;
12177;SDS011;6152;48.728;9.256;2023-10-13T14:17:36;3.10;;;1.73;;
12177;SDS011;6152;48.728;9.256;2023-10-13T14:20:07;4.70;;;1.80;;
12177;SDS011;6152;48.728;9.256;2023-10-13T14:22:43;1.70;;;1.60;;
12177;SDS011;6152;48.728;9.256;2023-10-13T14:25:13;3.35;;;1.60;;
12177;SDS011;6152;48.728;9.256;2023-10-13T14:27:40;4.82;;;1.75;;
12177;SDS011;6152;48.728;9.256;2023-10-13T14:30:07;2.97;;;2.08;;
12177;SDS011;6152;48.728;9.256;2023-10-13T14:32:33;6.03;;;1.63;;
12177;SDS011;6152;48.728;9.256;2023-10-13T14:35:05;5.32;;;1.55;;
12177;SDS011;6152;48.728;9.256;2023-10-13T14:37:39;5.20;;;1.75;;
12177;SDS011;6152;48.728;9.256;2023-10-13T14:40:06;2.60;;;1.55;;
12177;SDS011;6152;48.728;9.256;2023-10-13T14:42:38;6.70;;;1.75;;
12177;SDS011;6152;48.728;9.256;2023-10-13T14:45:08;4.07;;;1.65;;
12177;SDS011;6152;48.728;9.256;2023-10-13T14:47:38;4.25;;;1.55;;
12177;SDS011;6152;48.728;9.256;2023-10-13T14:50:05;2.72;;;1.40;;
12177;SDS011;6152;48.728;9.256;2023-10-13T14:52:31;2.70;;;1.33;;
12177;SDS011;6152;48.728;9.256;2023-10-13T14:54:58;1.65;;;1.52;;
12177;SDS011;6152;48.728;9.256;2023-10-13T14:57:24;3.22;;;1.45;;
12177;SDS011;6152;48.728;9.256;2023-10-13T14:59:54;2.50;;;1.40;;
12177;SDS011;6152;48.728;9.256;2023-10-13T15:02:21;2.25;;;1.35;;
12177;SDS011;6152;48.728;9.256;2023-10-13T15:04:47;2.65;;;1.10;;
12177;SDS011;6152;48.728;9.256;2023-10-13T15:07:14;3.28;;;1.52;;
12177;SDS011;6152;48.728;9.256;2023-10-13T15:09:41;3.35;;;1.42;;
12177;SDS011;6152;48.728;9.256;2023-10-13T15:12:08;2.22;;;1.35;;
12177;SDS011;6152;48.728;9.256;2023-10-13T15:14:36;4.20;;;1.30;;
12177;SDS011;6152;48.728;9.256;2023-10-13T15:17:04;4.82;;;1.40;;
12177;SDS011;6152;48.728;9.256;2023-10-13T15:19:31;1.73;;;1.40;;
12177;SDS011;6152;48.728;9.256;2023-10-13T15:22:04;3.13;;;1.30;;
12177;SDS011;6152;48.728;9.256;2023-10-13T15:24:31;3.83;;;1.20;;
12177;SDS011;6152;48.728;9.256;2023-10-13T15:27:06;2.53;;;1.20;;
12177;SDS011;6152;48.728;9.256;2023-10-13T15:29:33;1.55;;;1.27;;
12177;SDS011;6152;48.728;9.256;2023-10-13T15:32:05;4.32;;;1.20;;
12177;SDS011;6152;48.728;9.256;2023-10-13T15:34:40;2.95;;;1.20;;
12177;SDS011;6152;48.728;9.256;2023-10-13T15:37:06;4.97;;;1.30;;
12177;SDS011;6152;48.728;9.256;2023-10-13T15:39:37;3.28;;;1.10;;
12177;SDS011;6152;48.728;9.256;2023-10-13T15:42:04;3.33;;;1.45;;
12177;SDS011;6152;48.728;9.256;2023-10-13T15:44:33;2.67;;;1.50;;
12177;SDS011;6152;48.728;9.256;2023-10-13T15:47:00;2.67;;;1.30;;
12177;SDS011;6152;48.728;9.256;2023-10-13T15:49:26;3.28;;;1.40;;